sensor_id;sensor_type;location;lat;lon;timestamp;P1;durP1;ratioP1;P2;durP2;ratioP2
51901;SDS011;37929;53.218;6.548;2023-11-21T00:20:03;17.98;;;5.15;;
51901;SDS011;37929;53.218;6.548;2023-11-21T06:34:13;24.70;;;10.45;;
51901;SDS011;37929;53.218;6.548;2023-11-21T06:36:39;25.95;;;11.05;;
51901;SDS011;37929;53.218;6.548;2023-11-21T06:39:05;28.05;;;10.88;;
51901;SDS011;37929;53.218;6.548;2023-11-21T06:41:33;24.75;;;9.93;;
51901;SDS011;37929;53.218;6.548;2023-11-21T06:46:48;18.90;;;8.45;;
51901;SDS011;37929;53.218;6.548;2023-11-21T06:49:14;19.45;;;8.70;;
51901;SDS011;37929;53.218;6.548;2023-11-21T06:51:56;19.80;;;8.10;;
51901;SDS011;37929;53.218;6.548;2023-11-21T06:54:23;20.35;;;8.77;;
51901;SDS011;37929;53.218;6.548;2023-11-21T06:56:49;21.33;;;8.70;;
51901;SDS011;37929;53.218;6.548;2023-11-21T06:59:15;20.20;;;9.43;;
51901;SDS011;37929;53.218;6.548;2023-11-21T07:01:42;20.38;;;9.25;;
51901;SDS011;37929;53.218;6.548;2023-11-21T07:04:34;20.80;;;10.45;;
51901;SDS011;37929;53.218;6.548;2023-11-21T07:11:32;24.38;;;10.73;;
51901;SDS011;37929;53.218;6.548;2023-11-21T07:17:48;26.80;;;11.90;;
51901;SDS011;37929;53.218;6.548;2023-11-21T07:27:48;26.08;;;13.18;;
51901;SDS011;37929;53.218;6.548;2023-11-21T08:39:38;26.08;;;13.60;;
51901;SDS011;37929;53.218;6.548;2023-11-21T08:42:07;26.27;;;14.07;;
51901;SDS011;37929;53.218;6.548;2023-11-21T09:03:12;20.65;;;12.45;;
51901;SDS011;37929;53.218;6.548;2023-11-21T09:09:23;19.13;;;11.95;;
51901;SDS011;37929;53.218;6.548;2023-11-21T09:27:06;15.32;;;10.73;;
51901;SDS011;37929;53.218;6.548;2023-11-21T09:29:32;17.58;;;10.82;;
51901;SDS011;37929;53.218;6.548;2023-11-21T09:31:58;16.27;;;10.75;;
51901;SDS011;37929;53.218;6.548;2023-11-21T09:34:26;18.02;;;11.50;;
51901;SDS011;37929;53.218;6.548;2023-11-21T09:36:52;18.38;;;11.50;;
51901;SDS011;37929;53.218;6.548;2023-11-21T09:39:19;16.08;;;11.02;;
51901;SDS011;37929;53.218;6.548;2023-11-21T09:41:51;18.23;;;10.48;;
51901;SDS011;37929;53.218;6.548;2023-11-21T09:44:23;15.73;;;10.23;;
51901;SDS011;37929;53.218;6.548;2023-11-21T09:47:00;18.23;;;10.80;;
51901;SDS011;37929;53.218;6.548;2023-11-21T09:49:27;16.65;;;10.80;;
51901;SDS011;37929;53.218;6.548;2023-11-21T09:51:57;15.38;;;10.18;;
51901;SDS011;37929;53.218;6.548;2023-11-21T09:54:28;14.18;;;9.18;;
51901;SDS011;37929;53.218;6.548;2023-11-21T09:56:57;15.32;;;9.43;;
51901;SDS011;37929;53.218;6.548;2023-11-21T09:59:25;14.70;;;9.73;;
51901;SDS011;37929;53.218;6.548;2023-11-21T10:01:55;15.65;;;9.50;;
51901;SDS011;37929;53.218;6.548;2023-11-21T10:04:23;13.77;;;8.75;;
51901;SDS011;37929;53.218;6.548;2023-11-21T10:06:49;14.85;;;9.23;;
51901;SDS011;37929;53.218;6.548;2023-11-21T10:09:17;14.20;;;8.60;;
51901;SDS011;37929;53.218;6.548;2023-11-21T10:11:45;13.13;;;8.10;;
51901;SDS011;37929;53.218;6.548;2023-11-21T10:14:14;13.43;;;8.55;;
51901;SDS011;37929;53.218;6.548;2023-11-21T10:16:43;12.38;;;7.90;;
51901;SDS011;37929;53.218;6.548;2023-11-21T10:19:12;11.85;;;7.28;;
51901;SDS011;37929;53.218;6.548;2023-11-21T10:21:38;12.05;;;7.82;;
51901;SDS011;37929;53.218;6.548;2023-11-21T10:24:05;14.57;;;9.10;;
51901;SDS011;37929;53.218;6.548;2023-11-21T10:26:31;12.45;;;7.70;;
51901;SDS011;37929;53.218;6.548;2023-11-21T10:28:59;12.68;;;8.23;;
51901;SDS011;37929;53.218;6.548;2023-11-21T10:31:29;12.40;;;7.00;;
51901;SDS011;37929;53.218;6.548;2023-11-21T10:34:18;11.38;;;7.65;;
51901;SDS011;37929;53.218;6.548;2023-11-21T10:36:45;12.27;;;7.30;;
51901;SDS011;37929;53.218;6.548;2023-11-21T10:39:14;10.63;;;6.70;;
51901;SDS011;37929;53.218;6.548;2023-11-21T10:41:46;11.98;;;7.60;;
51901;SDS011;37929;53.218;6.548;2023-11-21T10:44:19;10.93;;;7.32;;
51901;SDS011;37929;53.218;6.548;2023-11-21T10:46:51;10.77;;;7.10;;
51901;SDS011;37929;53.218;6.548;2023-11-21T10:49:26;11.43;;;6.97;;
51901;SDS011;37929;53.218;6.548;2023-11-21T10:51:55;10.63;;;7.60;;
51901;SDS011;37929;53.218;6.548;2023-11-21T10:54:22;11.00;;;7.25;;
51901;SDS011;37929;53.218;6.548;2023-11-21T10:56:50;10.98;;;7.15;;
51901;SDS011;37929;53.218;6.548;2023-11-21T10:59:22;12.70;;;7.07;;
51901;SDS011;37929;53.218;6.548;2023-11-21T11:01:50;12.35;;;7.45;;
51901;SDS011;37929;53.218;6.548;2023-11-21T11:04:20;10.45;;;7.15;;
51901;SDS011;37929;53.218;6.548;2023-11-21T11:07:01;11.25;;;7.40;;
51901;SDS011;37929;53.218;6.548;2023-11-21T11:09:30;11.68;;;7.53;;
51901;SDS011;37929;53.218;6.548;2023-11-21T11:12:00;10.50;;;6.57;;
51901;SDS011;37929;53.218;6.548;2023-11-21T11:14:27;12.00;;;7.22;;
51901;SDS011;37929;53.218;6.548;2023-11-21T11:16:54;11.70;;;7.68;;
51901;SDS011;37929;53.218;6.548;2023-11-21T11:19:24;12.80;;;8.10;;
51901;SDS011;37929;53.218;6.548;2023-11-21T11:30:26;10.35;;;7.72;;
51901;SDS011;37929;53.218;6.548;2023-11-21T11:38:37;10.30;;;7.53;;
51901;SDS011;37929;53.218;6.548;2023-11-21T11:41:04;11.40;;;7.18;;
51901;SDS011;37929;53.218;6.548;2023-11-21T11:43:31;9.20;;;6.63;;
51901;SDS011;37929;53.218;6.548;2023-11-21T11:46:09;10.27;;;6.85;;
51901;SDS011;37929;53.218;6.548;2023-11-21T11:48:38;10.82;;;6.97;;
51901;SDS011;37929;53.218;6.548;2023-11-21T11:51:05;8.77;;;6.45;;
51901;SDS011;37929;53.218;6.548;2023-11-21T11:53:40;11.35;;;6.97;;
51901;SDS011;37929;53.218;6.548;2023-11-21T11:56:22;9.13;;;6.45;;
51901;SDS011;37929;53.218;6.548;2023-11-21T11:58:51;10.23;;;6.65;;
51901;SDS011;37929;53.218;6.548;2023-11-21T12:01:21;10.40;;;6.78;;
51901;SDS011;37929;53.218;6.548;2023-11-21T12:04:23;10.77;;;6.65;;
51901;SDS011;37929;53.218;6.548;2023-11-21T12:07:02;10.25;;;6.47;;
51901;SDS011;37929;53.218;6.548;2023-11-21T12:09:30;11.25;;;6.40;;
51901;SDS011;37929;53.218;6.548;2023-11-21T12:11:57;9.48;;;6.20;;
51901;SDS011;37929;53.218;6.548;2023-11-21T12:14:26;9.15;;;6.40;;
51901;SDS011;37929;53.218;6.548;2023-11-21T12:16:53;9.93;;;6.38;;
51901;SDS011;37929;53.218;6.548;2023-11-21T12:19:19;9.98;;;6.40;;
51901;SDS011;37929;53.218;6.548;2023-11-21T12:21:46;9.23;;;6.07;;
51901;SDS011;37929;53.218;6.548;2023-11-21T12:24:13;11.23;;;6.25;;
51901;SDS011;37929;53.218;6.548;2023-11-21T12:26:41;9.82;;;6.53;;
51901;SDS011;37929;53.218;6.548;2023-11-21T12:29:11;10.27;;;6.70;;
51901;SDS011;37929;53.218;6.548;2023-11-21T12:31:37;11.48;;;6.85;;
51901;SDS011;37929;53.218;6.548;2023-11-21T12:34:03;8.48;;;5.85;;
51901;SDS011;37929;53.218;6.548;2023-11-21T12:36:31;12.82;;;7.10;;
51901;SDS011;37929;53.218;6.548;2023-11-21T12:38:59;9.25;;;6.05;;
51901;SDS011;37929;53.218;6.548;2023-11-21T12:41:28;8.95;;;6.13;;
51901;SDS011;37929;53.218;6.548;2023-11-21T12:43:54;9.68;;;6.60;;
51901;SDS011;37929;53.218;6.548;2023-11-21T12:46:20;10.18;;;5.82;;
51901;SDS011;37929;53.218;6.548;2023-11-21T12:48:46;9.35;;;6.20;;
51901;SDS011;37929;53.218;6.548;2023-11-21T12:51:15;10.00;;;6.90;;
51901;SDS011;37929;53.218;6.548;2023-11-21T12:53:41;8.93;;;6.35;;
51901;SDS011;37929;53.218;6.548;2023-11-21T12:56:11;10.18;;;6.30;;
51901;SDS011;37929;53.218;6.548;2023-11-21T12:58:37;9.32;;;6.43;;
51901;SDS011;37929;53.218;6.548;2023-11-21T13:01:05;10.93;;;6.93;;
51901;SDS011;37929;53.218;6.548;2023-11-21T13:03:37;11.25;;;6.93;;
51901;SDS011;37929;53.218;6.548;2023-11-21T13:06:05;9.27;;;6.03;;
51901;SDS011;37929;53.218;6.548;2023-11-21T13:08:32;10.15;;;7.10;;
51901;SDS011;37929;53.218;6.548;2023-11-21T13:10:58;10.18;;;6.53;;
51901;SDS011;37929;53.218;6.548;2023-11-21T13:13:26;10.98;;;6.38;;
51901;SDS011;37929;53.218;6.548;2023-11-21T13:15:54;9.93;;;6.35;;
51901;SDS011;37929;53.218;6.548;2023-11-21T13:18:29;9.55;;;5.97;;
51901;SDS011;37929;53.218;6.548;2023-11-21T13:21:00;9.30;;;6.47;;
51901;SDS011;37929;53.218;6.548;2023-11-21T13:23:37;10.98;;;6.70;;
51901;SDS011;37929;53.218;6.548;2023-11-21T13:26:03;10.70;;;5.93;;
51901;SDS011;37929;53.218;6.548;2023-11-21T13:28:30;9.40;;;6.60;;
51901;SDS011;37929;53.218;6.548;2023-11-21T13:30:58;9.77;;;6.03;;
51901;SDS011;37929;53.218;6.548;2023-11-21T13:33:43;10.50;;;6.63;;
51901;SDS011;37929;53.218;6.548;2023-11-21T13:36:15;9.32;;;6.45;;
51901;SDS011;37929;53.218;6.548;2023-11-21T13:38:48;9.75;;;6.18;;
51901;SDS011;37929;53.218;6.548;2023-11-21T13:41:15;9.27;;;6.13;;
51901;SDS011;37929;53.218;6.548;2023-11-21T13:43:43;9.63;;;5.82;;
51901;SDS011;37929;53.218;6.548;2023-11-21T13:46:16;10.50;;;5.97;;
51901;SDS011;37929;53.218;6.548;2023-11-21T13:48:47;10.60;;;5.70;;
51901;SDS011;37929;53.218;6.548;2023-11-21T13:51:21;8.15;;;5.40;;
51901;SDS011;37929;53.218;6.548;2023-11-21T13:54:02;8.15;;;5.25;;
51901;SDS011;37929;53.218;6.548;2023-11-21T13:56:34;8.55;;;5.45;;
51901;SDS011;37929;53.218;6.548;2023-11-21T13:59:04;8.38;;;5.95;;
51901;SDS011;37929;53.218;6.548;2023-11-21T14:01:41;8.80;;;5.45;;
51901;SDS011;37929;53.218;6.548;2023-11-21T14:04:20;7.68;;;5.25;;
51901;SDS011;37929;53.218;6.548;2023-11-21T14:07:00;7.65;;;5.35;;
51901;SDS011;37929;53.218;6.548;2023-11-21T14:09:42;8.50;;;5.22;;
51901;SDS011;37929;53.218;6.548;2023-11-21T14:12:11;6.68;;;4.85;;
51901;SDS011;37929;53.218;6.548;2023-11-21T14:14:38;8.18;;;5.03;;
51901;SDS011;37929;53.218;6.548;2023-11-21T14:17:04;9.63;;;5.18;;
51901;SDS011;37929;53.218;6.548;2023-11-21T14:19:32;7.22;;;5.20;;
51901;SDS011;37929;53.218;6.548;2023-11-21T14:21:59;9.27;;;5.20;;
51901;SDS011;37929;53.218;6.548;2023-11-21T14:24:29;9.25;;;4.65;;
51901;SDS011;37929;53.218;6.548;2023-11-21T14:26:56;8.02;;;4.85;;
51901;SDS011;37929;53.218;6.548;2023-11-21T14:29:22;6.85;;;4.55;;
51901;SDS011;37929;53.218;6.548;2023-11-21T14:31:51;8.93;;;4.57;;
51901;SDS011;37929;53.218;6.548;2023-11-21T14:34:21;8.93;;;4.70;;
51901;SDS011;37929;53.218;6.548;2023-11-21T14:36:48;6.78;;;4.55;;
51901;SDS011;37929;53.218;6.548;2023-11-21T14:39:15;7.85;;;4.70;;
51901;SDS011;37929;53.218;6.548;2023-11-21T14:41:49;7.10;;;4.30;;
51901;SDS011;37929;53.218;6.548;2023-11-21T14:44:15;9.75;;;4.43;;
51901;SDS011;37929;53.218;6.548;2023-11-21T14:46:41;7.13;;;4.38;;
51901;SDS011;37929;53.218;6.548;2023-11-21T14:49:11;7.40;;;4.80;;
51901;SDS011;37929;53.218;6.548;2023-11-21T14:51:48;8.45;;;4.75;;
51901;SDS011;37929;53.218;6.548;2023-11-21T14:54:31;7.32;;;4.63;;
51901;SDS011;37929;53.218;6.548;2023-11-21T14:57:10;8.27;;;4.43;;
51901;SDS011;37929;53.218;6.548;2023-11-21T14:59:45;9.35;;;4.47;;
51901;SDS011;37929;53.218;6.548;2023-11-21T15:02:23;6.97;;;4.22;;
51901;SDS011;37929;53.218;6.548;2023-11-21T15:05:09;8.32;;;4.55;;
51901;SDS011;37929;53.218;6.548;2023-11-21T15:07:44;6.78;;;4.47;;
51901;SDS011;37929;53.218;6.548;2023-11-21T15:10:10;6.50;;;4.25;;
51901;SDS011;37929;53.218;6.548;2023-11-21T15:12:38;8.07;;;4.60;;
51901;SDS011;37929;53.218;6.548;2023-11-21T15:15:08;7.25;;;4.38;;
51901;SDS011;37929;53.218;6.548;2023-11-21T15:17:35;6.78;;;4.43;;
51901;SDS011;37929;53.218;6.548;2023-11-21T15:20:02;6.75;;;4.47;;
51901;SDS011;37929;53.218;6.548;2023-11-21T15:22:32;7.22;;;4.65;;
51901;SDS011;37929;53.218;6.548;2023-11-21T15:24:57;8.50;;;4.45;;
51901;SDS011;37929;53.218;6.548;2023-11-21T15:27:29;7.47;;;4.35;;
51901;SDS011;37929;53.218;6.548;2023-11-21T15:29:55;7.00;;;4.47;;
51901;SDS011;37929;53.218;6.548;2023-11-21T15:32:21;9.63;;;4.60;;
51901;SDS011;37929;53.218;6.548;2023-11-21T15:34:47;7.32;;;4.40;;
51901;SDS011;37929;53.218;6.548;2023-11-21T15:37:13;8.57;;;4.18;;
51901;SDS011;37929;53.218;6.548;2023-11-21T15:39:39;8.07;;;5.10;;
51901;SDS011;37929;53.218;6.548;2023-11-21T15:42:05;7.75;;;4.78;;
51901;SDS011;37929;53.218;6.548;2023-11-21T15:44:32;7.53;;;4.80;;
51901;SDS011;37929;53.218;6.548;2023-11-21T15:46:58;8.75;;;4.78;;
51901;SDS011;37929;53.218;6.548;2023-11-21T15:49:25;10.25;;;4.65;;
51901;SDS011;37929;53.218;6.548;2023-11-21T15:51:52;7.13;;;4.72;;
51901;SDS011;37929;53.218;6.548;2023-11-21T15:54:19;8.68;;;4.80;;
51901;SDS011;37929;53.218;6.548;2023-11-21T15:56:47;6.32;;;5.10;;
51901;SDS011;37929;53.218;6.548;2023-11-21T15:59:13;7.78;;;5.30;;
51901;SDS011;37929;53.218;6.548;2023-11-21T16:01:39;7.57;;;4.78;;
51901;SDS011;37929;53.218;6.548;2023-11-21T16:04:13;6.35;;;4.63;;
51901;SDS011;37929;53.218;6.548;2023-11-21T16:06:44;7.95;;;5.13;;
51901;SDS011;37929;53.218;6.548;2023-11-21T16:09:12;6.65;;;5.05;;
51901;SDS011;37929;53.218;6.548;2023-11-21T16:11:54;7.13;;;4.72;;
51901;SDS011;37929;53.218;6.548;2023-11-21T16:14:25;8.45;;;5.05;;
51901;SDS011;37929;53.218;6.548;2023-11-21T16:16:57;10.98;;;5.57;;
51901;SDS011;37929;53.218;6.548;2023-11-21T16:19:24;9.45;;;6.10;;
51901;SDS011;37929;53.218;6.548;2023-11-21T16:21:50;9.32;;;5.63;;
51901;SDS011;37929;53.218;6.548;2023-11-21T16:24:15;7.15;;;5.55;;
51901;SDS011;37929;53.218;6.548;2023-11-21T16:26:45;7.82;;;5.60;;
51901;SDS011;37929;53.218;6.548;2023-11-21T16:29:11;9.05;;;6.18;;
51901;SDS011;37929;53.218;6.548;2023-11-21T16:31:38;9.50;;;5.85;;
51901;SDS011;37929;53.218;6.548;2023-11-21T16:34:13;8.32;;;5.63;;
51901;SDS011;37929;53.218;6.548;2023-11-21T16:36:42;8.18;;;5.85;;
51901;SDS011;37929;53.218;6.548;2023-11-21T16:39:08;7.68;;;5.70;;
51901;SDS011;37929;53.218;6.548;2023-11-21T16:41:41;7.32;;;5.68;;
51901;SDS011;37929;53.218;6.548;2023-11-21T16:44:13;8.57;;;5.80;;
51901;SDS011;37929;53.218;6.548;2023-11-21T16:46:43;8.00;;;5.77;;
51901;SDS011;37929;53.218;6.548;2023-11-21T16:49:11;8.52;;;5.53;;
51901;SDS011;37929;53.218;6.548;2023-11-21T16:51:37;9.98;;;6.55;;
51901;SDS011;37929;53.218;6.548;2023-11-21T16:54:04;9.88;;;5.82;;
51901;SDS011;37929;53.218;6.548;2023-11-21T16:56:29;11.02;;;6.40;;
51901;SDS011;37929;53.218;6.548;2023-11-21T16:58:55;11.57;;;6.65;;
51901;SDS011;37929;53.218;6.548;2023-11-21T17:01:23;9.13;;;6.70;;
51901;SDS011;37929;53.218;6.548;2023-11-21T17:03:51;11.25;;;7.10;;
51901;SDS011;37929;53.218;6.548;2023-11-21T17:06:17;8.68;;;5.80;;
51901;SDS011;37929;53.218;6.548;2023-11-21T17:08:43;10.27;;;6.70;;
51901;SDS011;37929;53.218;6.548;2023-11-21T17:11:10;10.27;;;6.25;;
51901;SDS011;37929;53.218;6.548;2023-11-21T17:13:39;23.55;;;12.00;;
51901;SDS011;37929;53.218;6.548;2023-11-21T17:16:06;10.98;;;7.63;;
51901;SDS011;37929;53.218;6.548;2023-11-21T17:18:32;10.60;;;7.28;;
51901;SDS011;37929;53.218;6.548;2023-11-21T17:20:58;10.00;;;6.57;;
51901;SDS011;37929;53.218;6.548;2023-11-21T17:23:23;10.80;;;6.93;;
51901;SDS011;37929;53.218;6.548;2023-11-21T17:25:49;10.27;;;7.60;;
51901;SDS011;37929;53.218;6.548;2023-11-21T17:28:15;11.68;;;6.82;;
51901;SDS011;37929;53.218;6.548;2023-11-21T17:30:42;10.55;;;6.97;;
51901;SDS011;37929;53.218;6.548;2023-11-21T17:33:08;13.75;;;7.25;;
51901;SDS011;37929;53.218;6.548;2023-11-21T17:35:34;11.63;;;7.18;;
51901;SDS011;37929;53.218;6.548;2023-11-21T17:38:00;11.70;;;7.72;;
51901;SDS011;37929;53.218;6.548;2023-11-21T17:40:26;12.38;;;7.30;;
51901;SDS011;37929;53.218;6.548;2023-11-21T17:42:53;11.10;;;7.38;;
51901;SDS011;37929;53.218;6.548;2023-11-21T17:45:19;12.63;;;7.60;;
51901;SDS011;37929;53.218;6.548;2023-11-21T17:47:48;11.02;;;6.93;;
51901;SDS011;37929;53.218;6.548;2023-11-21T17:50:14;12.07;;;7.45;;
51901;SDS011;37929;53.218;6.548;2023-11-21T17:52:40;13.88;;;8.07;;
51901;SDS011;37929;53.218;6.548;2023-11-21T17:55:05;16.83;;;8.65;;
51901;SDS011;37929;53.218;6.548;2023-11-21T17:57:34;11.68;;;7.97;;
51901;SDS011;37929;53.218;6.548;2023-11-21T18:00:01;12.50;;;7.63;;
51901;SDS011;37929;53.218;6.548;2023-11-21T18:02:31;12.48;;;7.55;;
51901;SDS011;37929;53.218;6.548;2023-11-21T18:05:02;13.18;;;7.47;;
51901;SDS011;37929;53.218;6.548;2023-11-21T18:07:33;13.23;;;8.30;;
51901;SDS011;37929;53.218;6.548;2023-11-21T18:09:59;12.38;;;7.75;;
51901;SDS011;37929;53.218;6.548;2023-11-21T18:12:25;11.65;;;7.15;;
51901;SDS011;37929;53.218;6.548;2023-11-21T18:14:51;11.68;;;8.20;;
51901;SDS011;37929;53.218;6.548;2023-11-21T18:17:17;11.35;;;7.60;;
51901;SDS011;37929;53.218;6.548;2023-11-21T18:19:45;15.27;;;9.23;;
51901;SDS011;37929;53.218;6.548;2023-11-21T18:22:20;14.20;;;9.05;;
51901;SDS011;37929;53.218;6.548;2023-11-21T18:24:47;13.30;;;8.65;;
51901;SDS011;37929;53.218;6.548;2023-11-21T18:27:13;13.10;;;8.98;;
51901;SDS011;37929;53.218;6.548;2023-11-21T18:29:39;13.23;;;8.40;;
51901;SDS011;37929;53.218;6.548;2023-11-21T18:32:05;14.52;;;8.43;;
51901;SDS011;37929;53.218;6.548;2023-11-21T18:34:35;13.52;;;7.75;;
51901;SDS011;37929;53.218;6.548;2023-11-21T18:37:06;10.93;;;7.82;;
51901;SDS011;37929;53.218;6.548;2023-11-21T18:39:35;14.10;;;7.55;;
51901;SDS011;37929;53.218;6.548;2023-11-21T18:42:01;12.25;;;8.38;;
51901;SDS011;37929;53.218;6.548;2023-11-21T18:44:26;11.38;;;7.32;;
51901;SDS011;37929;53.218;6.548;2023-11-21T18:46:52;12.50;;;8.27;;
51901;SDS011;37929;53.218;6.548;2023-11-21T18:49:18;14.35;;;8.60;;
51901;SDS011;37929;53.218;6.548;2023-11-21T18:51:47;15.80;;;9.60;;
51901;SDS011;37929;53.218;6.548;2023-11-21T18:54:15;13.90;;;9.00;;
51901;SDS011;37929;53.218;6.548;2023-11-21T18:56:48;13.90;;;9.45;;
51901;SDS011;37929;53.218;6.548;2023-11-21T18:59:14;11.63;;;8.10;;
51901;SDS011;37929;53.218;6.548;2023-11-21T19:01:40;11.75;;;8.70;;
51901;SDS011;37929;53.218;6.548;2023-11-21T19:04:09;12.10;;;9.30;;
51901;SDS011;37929;53.218;6.548;2023-11-21T19:06:36;11.40;;;8.73;;
51901;SDS011;37929;53.218;6.548;2023-11-21T19:09:02;13.40;;;9.15;;
51901;SDS011;37929;53.218;6.548;2023-11-21T19:11:28;11.05;;;8.25;;
51901;SDS011;37929;53.218;6.548;2023-11-21T19:13:54;11.32;;;8.35;;
51901;SDS011;37929;53.218;6.548;2023-11-21T19:16:20;12.38;;;8.77;;
51901;SDS011;37929;53.218;6.548;2023-11-21T19:18:46;13.40;;;8.23;;
51901;SDS011;37929;53.218;6.548;2023-11-21T19:21:15;13.23;;;8.43;;
51901;SDS011;37929;53.218;6.548;2023-11-21T19:23:42;12.70;;;8.80;;
51901;SDS011;37929;53.218;6.548;2023-11-21T19:26:09;11.98;;;9.27;;
51901;SDS011;37929;53.218;6.548;2023-11-21T19:28:34;13.68;;;8.70;;
51901;SDS011;37929;53.218;6.548;2023-11-21T19:31:01;14.60;;;9.43;;
51901;SDS011;37929;53.218;6.548;2023-11-21T19:33:28;11.57;;;8.70;;
51901;SDS011;37929;53.218;6.548;2023-11-21T19:35:55;12.93;;;8.70;;
51901;SDS011;37929;53.218;6.548;2023-11-21T19:38:21;13.40;;;9.30;;
51901;SDS011;37929;53.218;6.548;2023-11-21T19:40:50;12.52;;;8.43;;
51901;SDS011;37929;53.218;6.548;2023-11-21T19:43:17;11.40;;;8.00;;
51901;SDS011;37929;53.218;6.548;2023-11-21T19:45:43;10.40;;;7.95;;
51901;SDS011;37929;53.218;6.548;2023-11-21T19:48:09;13.77;;;9.00;;
51901;SDS011;37929;53.218;6.548;2023-11-21T19:50:35;13.38;;;9.00;;
51901;SDS011;37929;53.218;6.548;2023-11-21T19:53:07;12.38;;;8.85;;
51901;SDS011;37929;53.218;6.548;2023-11-21T19:55:33;13.20;;;9.00;;
51901;SDS011;37929;53.218;6.548;2023-11-21T19:57:59;12.70;;;8.43;;
51901;SDS011;37929;53.218;6.548;2023-11-21T20:00:27;10.77;;;7.55;;
51901;SDS011;37929;53.218;6.548;2023-11-21T20:02:54;11.48;;;7.78;;
51901;SDS011;37929;53.218;6.548;2023-11-21T20:05:20;10.85;;;8.55;;
51901;SDS011;37929;53.218;6.548;2023-11-21T20:07:46;11.20;;;8.45;;
51901;SDS011;37929;53.218;6.548;2023-11-21T20:10:13;11.57;;;7.50;;
51901;SDS011;37929;53.218;6.548;2023-11-21T20:12:38;11.40;;;8.43;;
51901;SDS011;37929;53.218;6.548;2023-11-21T20:15:04;12.45;;;9.13;;
51901;SDS011;37929;53.218;6.548;2023-11-21T20:17:31;11.13;;;7.60;;
51901;SDS011;37929;53.218;6.548;2023-11-21T20:19:58;10.95;;;7.57;;
51901;SDS011;37929;53.218;6.548;2023-11-21T20:22:24;11.82;;;7.97;;
51901;SDS011;37929;53.218;6.548;2023-11-21T20:24:50;10.57;;;7.55;;
51901;SDS011;37929;53.218;6.548;2023-11-21T20:27:15;11.60;;;8.05;;
51901;SDS011;37929;53.218;6.548;2023-11-21T20:29:42;11.85;;;7.82;;
51901;SDS011;37929;53.218;6.548;2023-11-21T20:32:09;11.25;;;7.63;;
51901;SDS011;37929;53.218;6.548;2023-11-21T20:34:36;12.00;;;8.00;;
51901;SDS011;37929;53.218;6.548;2023-11-21T20:37:03;12.98;;;7.82;;
51901;SDS011;37929;53.218;6.548;2023-11-21T20:39:32;12.77;;;8.32;;
51901;SDS011;37929;53.218;6.548;2023-11-21T20:42:01;11.68;;;8.73;;
51901;SDS011;37929;53.218;6.548;2023-11-21T20:44:27;13.52;;;8.95;;
51901;SDS011;37929;53.218;6.548;2023-11-21T20:46:52;12.27;;;8.43;;
51901;SDS011;37929;53.218;6.548;2023-11-21T20:49:18;10.43;;;7.85;;
51901;SDS011;37929;53.218;6.548;2023-11-21T20:51:44;13.30;;;8.35;;
51901;SDS011;37929;53.218;6.548;2023-11-21T20:54:11;12.32;;;7.93;;
51901;SDS011;37929;53.218;6.548;2023-11-21T20:56:41;12.80;;;8.38;;
51901;SDS011;37929;53.218;6.548;2023-11-21T20:59:06;10.43;;;7.70;;
51901;SDS011;37929;53.218;6.548;2023-11-21T21:01:33;11.98;;;8.23;;
51901;SDS011;37929;53.218;6.548;2023-11-21T21:03:59;11.02;;;7.82;;
51901;SDS011;37929;53.218;6.548;2023-11-21T21:06:29;12.82;;;8.23;;
51901;SDS011;37929;53.218;6.548;2023-11-21T21:08:55;12.95;;;8.10;;
51901;SDS011;37929;53.218;6.548;2023-11-21T21:11:23;13.38;;;8.50;;
51901;SDS011;37929;53.218;6.548;2023-11-21T21:13:51;11.23;;;7.32;;
51901;SDS011;37929;53.218;6.548;2023-11-21T21:16:20;13.07;;;8.38;;
51901;SDS011;37929;53.218;6.548;2023-11-21T21:18:51;12.13;;;7.70;;
51901;SDS011;37929;53.218;6.548;2023-11-21T21:21:18;11.88;;;7.20;;
51901;SDS011;37929;53.218;6.548;2023-11-21T21:23:44;12.32;;;8.10;;
51901;SDS011;37929;53.218;6.548;2023-11-21T21:26:10;11.68;;;7.75;;
51901;SDS011;37929;53.218;6.548;2023-11-21T21:28:36;11.63;;;7.43;;
51901;SDS011;37929;53.218;6.548;2023-11-21T21:31:02;12.10;;;7.63;;
51901;SDS011;37929;53.218;6.548;2023-11-21T21:33:28;10.50;;;7.25;;
51901;SDS011;37929;53.218;6.548;2023-11-21T21:35:54;11.18;;;6.55;;
51901;SDS011;37929;53.218;6.548;2023-11-21T21:38:20;11.23;;;6.80;;
51901;SDS011;37929;53.218;6.548;2023-11-21T21:40:46;11.43;;;6.85;;
51901;SDS011;37929;53.218;6.548;2023-11-21T21:43:12;9.77;;;6.90;;
51901;SDS011;37929;53.218;6.548;2023-11-21T21:45:38;10.38;;;7.10;;
51901;SDS011;37929;53.218;6.548;2023-11-21T21:48:04;10.25;;;6.90;;
51901;SDS011;37929;53.218;6.548;2023-11-21T21:50:31;10.40;;;7.07;;
51901;SDS011;37929;53.218;6.548;2023-11-21T21:52:57;10.52;;;6.88;;
51901;SDS011;37929;53.218;6.548;2023-11-21T21:55:22;10.20;;;6.82;;
51901;SDS011;37929;53.218;6.548;2023-11-21T21:57:48;11.05;;;7.32;;
51901;SDS011;37929;53.218;6.548;2023-11-21T22:00:14;9.30;;;6.75;;
51901;SDS011;37929;53.218;6.548;2023-11-21T22:02:41;9.45;;;6.60;;
51901;SDS011;37929;53.218;6.548;2023-11-21T22:05:11;10.25;;;6.70;;
51901;SDS011;37929;53.218;6.548;2023-11-21T22:07:37;10.38;;;7.03;;
51901;SDS011;37929;53.218;6.548;2023-11-21T22:10:10;10.75;;;7.03;;
51901;SDS011;37929;53.218;6.548;2023-11-21T22:12:36;10.77;;;6.72;;
51901;SDS011;37929;53.218;6.548;2023-11-21T22:15:02;9.25;;;6.35;;
51901;SDS011;37929;53.218;6.548;2023-11-21T22:17:29;10.50;;;7.43;;
51901;SDS011;37929;53.218;6.548;2023-11-21T22:19:55;10.98;;;7.03;;
51901;SDS011;37929;53.218;6.548;2023-11-21T22:22:22;11.00;;;6.95;;
51901;SDS011;37929;53.218;6.548;2023-11-21T22:24:49;9.48;;;7.07;;
51901;SDS011;37929;53.218;6.548;2023-11-21T22:27:16;12.07;;;7.57;;
51901;SDS011;37929;53.218;6.548;2023-11-21T22:29:43;11.45;;;6.95;;
51901;SDS011;37929;53.218;6.548;2023-11-21T22:32:10;10.15;;;6.70;;
51901;SDS011;37929;53.218;6.548;2023-11-21T22:34:36;10.15;;;6.95;;
51901;SDS011;37929;53.218;6.548;2023-11-21T22:37:02;9.50;;;6.85;;
51901;SDS011;37929;53.218;6.548;2023-11-21T22:39:31;10.93;;;7.13;;
51901;SDS011;37929;53.218;6.548;2023-11-21T22:41:57;9.43;;;6.75;;
51901;SDS011;37929;53.218;6.548;2023-11-21T22:44:23;10.57;;;6.90;;
51901;SDS011;37929;53.218;6.548;2023-11-21T22:46:50;11.85;;;7.68;;
51901;SDS011;37929;53.218;6.548;2023-11-21T22:49:16;10.40;;;7.13;;
51901;SDS011;37929;53.218;6.548;2023-11-21T22:51:42;9.32;;;6.32;;
51901;SDS011;37929;53.218;6.548;2023-11-21T22:54:10;9.90;;;6.70;;
51901;SDS011;37929;53.218;6.548;2023-11-21T22:56:36;10.27;;;6.55;;
51901;SDS011;37929;53.218;6.548;2023-11-21T22:59:03;9.95;;;6.43;;
51901;SDS011;37929;53.218;6.548;2023-11-21T23:01:32;10.10;;;6.38;;
51901;SDS011;37929;53.218;6.548;2023-11-21T23:04:00;10.52;;;6.93;;
51901;SDS011;37929;53.218;6.548;2023-11-21T23:06:27;11.52;;;6.32;;
51901;SDS011;37929;53.218;6.548;2023-11-21T23:08:54;10.60;;;6.60;;
51901;SDS011;37929;53.218;6.548;2023-11-21T23:11:19;9.70;;;6.45;;
51901;SDS011;37929;53.218;6.548;2023-11-21T23:13:46;11.45;;;7.15;;
51901;SDS011;37929;53.218;6.548;2023-11-21T23:16:12;11.20;;;7.28;;
51901;SDS011;37929;53.218;6.548;2023-11-21T23:18:42;9.82;;;6.63;;
51901;SDS011;37929;53.218;6.548;2023-11-21T23:21:12;11.40;;;6.60;;
51901;SDS011;37929;53.218;6.548;2023-11-21T23:23:38;9.98;;;6.68;;
51901;SDS011;37929;53.218;6.548;2023-11-21T23:26:05;11.13;;;6.82;;
51901;SDS011;37929;53.218;6.548;2023-11-21T23:28:31;11.98;;;7.10;;
51901;SDS011;37929;53.218;6.548;2023-11-21T23:30:57;11.27;;;6.90;;
51901;SDS011;37929;53.218;6.548;2023-11-21T23:33:23;10.32;;;7.00;;
51901;SDS011;37929;53.218;6.548;2023-11-21T23:35:55;11.93;;;7.05;;